• Join FlightAware (Why Join?)
  • Login
  • US Flag 
12:55AM EDT


 

Airport Tracker/Info


-or-


 

Live Flight TrackerFlight Track Log ✈ N888BW ✈ 15-Jun-2013 ✈ KWWD - KFRG

Flight Track Log - Related Links

Times and Time Zones

All times are in EDT time to prevent confusion due to time zone crossing. See the N888BW flight status page for this flight to view local times or setup timezone preferences in your user account.

Time Position Orientation Groundspeed Altitude Reporting Facility
EDT Latitude Longitude Course Direction KTS MPH feet Rate Location/Type
10:23PM 39.1492 -74.6414 33° Northeast 115 132 5,600  Level Washington Center
10:25PM 39.1776 -74.6199 34° Northeast  Level Estimated
10:26PM 39.1441 -74.7940 33° Northeast  Level Estimated
10:27PM 39.1712 -74.7710 33° Northeast  Level Estimated
10:28PM 39.1983 -74.7481 33° Northeast  Level Estimated
10:28PM 39.2525 -74.5408 26° Northeast 120 138 5,500  Level Washington Center
10:29PM 39.2254 -74.7251 33° Northeast  Level Estimated
10:29PM 39.2806 -74.5199 30° Northeast  Level Estimated
10:32PM 39.3822 -74.4928 26° Northeast  Level FlightAware Approximate
10:32PM 39.3539 -74.4456 30° Northeast 113 130 5,500  Level Washington Center
10:33PM 39.4114 -74.4746 26° Northeast  Level FlightAware Approximate
10:33PM 39.3845 -74.4319 19° North  Level FlightAware Approximate
10:36PM 39.4771 -74.3729 30° Northeast  Level Estimated
10:36PM 39.4592 -74.3497 19° North 114 131 5,500  Level Washington Center
10:37PM 39.5052 -74.3519 30° Northeast  Level Estimated
10:38PM 39.5149 -74.3095 29° Northeast  Level Estimated
10:40PM 39.5992 -74.3361 19° North  Level FlightAware Approximate
10:40PM 39.5747 -74.2536 29° Northeast 111 128 5,600  Level Washington Center
10:41PM 39.6298 -74.3223 19° North  Level FlightAware Approximate
10:42PM 39.6192 -74.2218 29° Northeast  Level Estimated
10:45PM 39.7130 -74.1657 29° Northeast  Level Estimated
10:49PM 39.8180 -74.0792 29° Northeast  Level Estimated
10:50PM 39.8464 -74.0588 29° Northeast  Level Estimated
10:51PM 39.8747 -74.0383 29° Northeast  Level Estimated
10:52PM 39.9052 -74.0240 20° North  Level FlightAware Approximate
10:53PM 39.9357 -74.0097 20° North  Level FlightAware Approximate
10:54PM 39.9662 -73.9954 20° North  Level FlightAware Approximate
10:55PM 39.9967 -73.9810 20° North  Level FlightAware Approximate
10:56PM 40.0272 -73.9667 20° North  Level FlightAware Approximate
10:57PM 40.0577 -73.9523 20° North  Level FlightAware Approximate
10:58PM 40.0882 -73.9380 20° North  Level FlightAware Approximate
10:59PM 40.1187 -73.9236 20° North  Level FlightAware Approximate
11:00PM 40.1461 -73.9009 33° Northeast  Level Estimated
11:01PM 40.1733 -73.8777 33° Northeast  Level FlightAware Approximate
11:02PM 40.2005 -73.8546 33° Northeast  Level FlightAware Approximate
11:03PM 40.2276 -73.8314 33° Northeast  Level FlightAware Approximate
11:04PM 40.2548 -73.8082 33° Northeast  Level FlightAware Approximate
11:05PM 40.2819 -73.7850 33° Northeast  Level FlightAware Approximate
11:06PM 40.3091 -73.7617 33° Northeast  Level FlightAware Approximate
11:07PM 40.3362 -73.7385 33° Northeast  Level FlightAware Approximate
11:08PM 40.3634 -73.7152 33° Northeast  Level FlightAware Approximate
11:09PM 40.3905 -73.6919 33° Northeast  Level FlightAware Approximate
11:10PM 40.4176 -73.6686 33° Northeast  Level FlightAware Approximate
11:11PM 40.4448 -73.6453 33° Northeast  Level FlightAware Approximate
11:12PM 40.4719 -73.6219 33° Northeast  Level FlightAware Approximate
11:13PM 40.4990 -73.5986 33° Northeast  Level FlightAware Approximate
11:14PM 40.5266 -73.5764 21° North  Level Estimated
11:15PM 40.5532 -73.5484 21° North  Level FlightAware Approximate
11:16PM 40.5835 -73.5332 37° Northeast  Level FlightAware Approximate
11:17PM 40.6093 -73.5074 37° Northeast  Level FlightAware Approximate
11:18PM 40.6352 -73.4815 37° Northeast  Level FlightAware Approximate
11:19PM 40.6610 -73.4557 37° Northeast  Level FlightAware Approximate
11:20PM 40.6868 -73.4299 37° Northeast  Level FlightAware Approximate
11:21PM 40.7126 -73.4040 37° Northeast  Level FlightAware Approximate
11:22PM 40.7167 -73.4000 37° Northeast  Level FlightAware Approximate
11:23PM 40.7288 -73.4134 37° Northeast  Level Estimated
11:24PM 40.7288 -73.4134 37° Northeast  Level Estimated
11:25PM 40.7288 -73.4134 37° Northeast  Level Estimated
11:26PM 40.7288 -73.4134 37° Northeast  Level Estimated
11:27PM 40.7288 -73.4134 37° Northeast  Level Estimated
11:28PM 40.7288 -73.4134 37° Northeast  Level Estimated
11:29PM 40.7288 -73.4134 37° Northeast  Level Estimated
11:30PM 40.7288 -73.4134 37° Northeast  Level Estimated
11:31PM 40.7288 -73.4134 37° Northeast  Level Estimated
11:32PM 40.7288 -73.4134 37° Northeast  Level Estimated
11:33PM 40.7288 -73.4134 37° Northeast  Level Estimated
11:34PM 40.7288 -73.4134 37° Northeast  Level Estimated
11:35PM 40.7288 -73.4134 37° Northeast  Level Estimated
11:36PM 40.7288 -73.4134 37° Northeast  Level Estimated
11:37PM 40.7288 -73.4134 37° Northeast  Level Estimated
11:38PM 40.7288 -73.4134 37° Northeast  Level Estimated
11:39PM 40.7288 -73.4134 37° Northeast  Level Estimated
11:40PM 40.7288 -73.4134 37° Northeast  Level Estimated
11:41PM 40.7288 -73.4134 37° Northeast  Level Estimated